Time;durP1;ratioP1;P1;durP2;ratioP2;P2;SDS_P1;SDS_P2;PMS_P1;PMS_P2;Temp;Humidity;BMP_temperature;BMP_pressure;BME280_temperature;BME280_humidity;BME280_pressure;Samples;Min_cycle;Max_cycle;Signal;HPM_P1;HPM_P2
2021/06/12 00:01:43;;;;;;;17.97;14.20;;;18.10;99.90;;;;;;5260856;27;20122;-60
2021/06/12 00:04:09;;;;;;;17.17;13.50;;;18.00;99.90;;;;;;5260298;27;20539;-59
2021/06/12 00:06:37;;;;;;;17.40;13.50;;;18.00;99.90;;;;;;5259844;27;20145;-59
2021/06/12 00:09:05;;;;;;;18.13;14.10;;;18.00;99.90;;;;;;5260459;27;20166;-60
2021/06/12 00:11:31;;;;;;;15.83;13.10;;;18.00;99.90;;;;;;5261517;27;20171;-60
2021/06/12 00:13:58;;;;;;;18.23;12.23;;;18.00;99.90;;;;;;5259215;27;20125;-60
2021/06/12 00:16:24;;;;;;;16.63;11.50;;;18.00;99.90;;;;;;5261382;27;20163;-61
2021/06/12 00:18:51;;;;;;;20.07;13.37;;;17.90;99.90;;;;;;5259914;27;20416;-59
2021/06/12 00:21:17;;;;;;;17.47;12.80;;;17.90;99.90;;;;;;5260152;27;20170;-63
2021/06/12 00:23:45;;;;;;;17.83;12.00;;;18.00;99.90;;;;;;5255816;27;76710;-59
2021/06/12 00:26:11;;;;;;;20.03;14.27;;;18.00;99.90;;;;;;5261918;27;20115;-60
2021/06/12 00:28:37;;;;;;;16.07;11.37;;;18.00;99.90;;;;;;5261272;27;20107;-58
2021/06/12 00:31:04;;;;;;;16.63;11.90;;;18.10;99.90;;;;;;5261346;27;20107;-62
2021/06/12 00:33:30;;;;;;;19.80;12.43;;;18.10;99.90;;;;;;5259530;27;20189;-60
2021/06/12 00:35:57;;;;;;;15.83;11.70;;;18.20;99.90;;;;;;5259290;27;20107;-61
2021/06/12 00:38:23;;;;;;;19.73;12.63;;;18.20;99.90;;;;;;5259532;27;20148;-61
2021/06/12 00:40:51;;;;;;;18.70;12.30;;;18.20;99.90;;;;;;5259450;27;20107;-60
2021/06/12 00:43:17;;;;;;;16.63;10.90;;;18.20;99.90;;;;;;5261729;27;20138;-59
2021/06/12 00:45:46;;;;;;;16.17;11.70;;;18.20;99.90;;;;;;5261864;27;20123;-60
2021/06/12 00:48:15;;;;;;;16.73;10.87;;;18.20;99.90;;;;;;5259468;27;20138;-60
2021/06/12 00:50:42;;;;;;;17.90;11.67;;;18.10;99.90;;;;;;5260136;27;20137;-59
2021/06/12 00:53:08;;;;;;;18.33;12.10;;;18.10;99.90;;;;;;5259872;27;20139;-61
2021/06/12 00:55:36;;;;;;;16.20;11.70;;;18.10;99.90;;;;;;5260995;27;20107;-60
2021/06/12 00:58:05;;;;;;;14.77;10.73;;;18.10;99.90;;;;;;5260487;27;20131;-61
2021/06/12 01:00:31;;;;;;;18.03;10.70;;;18.10;99.90;;;;;;5260495;27;20111;-62
2021/06/12 01:02:58;;;;;;;15.53;10.90;;;18.20;99.90;;;;;;5261069;27;20523;-63
2021/06/12 01:05:24;;;;;;;15.50;10.73;;;18.10;99.90;;;;;;5259121;27;20194;-59
2021/06/12 01:07:54;;;;;;;18.50;11.03;;;18.10;99.90;;;;;;5259335;27;20168;-61
2021/06/12 01:10:20;;;;;;;17.30;10.23;;;18.10;99.90;;;;;;5260764;27;20123;-60
2021/06/12 01:13:10;;;;;;;20.37;11.17;;;18.10;99.90;;;;;;5259184;27;20122;-59
2021/06/12 01:15:49;;;;;;;15.10;10.10;;;18.10;99.90;;;;;;5260379;27;20108;-60
2021/06/12 01:18:18;;;;;;;16.93;10.47;;;18.10;99.90;;;;;;5260585;27;20122;-62
2021/06/12 01:21:04;;;;;;;14.20;9.40;;;18.20;99.90;;;;;;5261522;27;20589;-61
2021/06/12 01:24:20;;;;;;;17.10;10.50;;;18.10;99.90;;;;;;5237919;27;20150;-60
2021/06/12 01:27:16;;;;;;;16.60;10.40;;;18.10;99.90;;;;;;5240061;27;20536;-59
2021/06/12 01:30:02;;;;;;;16.93;9.77;;;18.10;99.90;;;;;;5237936;27;20209;-60
2021/06/12 01:32:32;;;;;;;16.27;10.23;;;18.10;99.90;;;;;;5238045;27;20203;-59
2021/06/12 01:35:02;;;;;;;16.63;9.60;;;18.10;99.90;;;;;;5240144;27;20123;-59
2021/06/12 01:37:28;;;;;;;17.50;9.63;;;18.10;99.90;;;;;;5237781;27;20165;-59
2021/06/12 01:39:56;;;;;;;15.50;8.60;;;18.00;99.90;;;;;;5238785;27;20493;-59
2021/06/12 01:42:23;;;;;;;14.00;8.87;;;18.10;99.90;;;;;;5237589;27;20111;-59
2021/06/12 01:44:51;;;;;;;18.73;9.70;;;18.10;99.90;;;;;;5237228;27;20134;-62
2021/06/12 01:47:20;;;;;;;17.47;9.60;;;18.10;99.90;;;;;;5239957;27;20108;-59
2021/06/12 01:49:49;;;;;;;17.37;9.50;;;18.10;99.90;;;;;;5240630;27;20104;-60
2021/06/12 01:52:16;;;;;;;18.23;9.57;;;18.10;99.90;;;;;;5237144;27;20150;-61
2021/06/12 01:54:43;;;;;;;16.97;9.90;;;18.10;99.90;;;;;;5242284;27;20153;-59
2021/06/12 01:57:12;;;;;;;20.87;9.73;;;18.10;99.90;;;;;;5239132;27;20127;-59
2021/06/12 01:59:40;;;;;;;18.47;10.03;;;18.10;99.90;;;;;;5238763;27;20126;-58
2021/06/12 02:02:07;;;;;;;18.67;9.83;;;18.10;99.90;;;;;;5238766;27;20126;-62
2021/06/12 02:04:38;;;;;;;17.30;9.43;;;18.10;99.90;;;;;;5237033;27;20150;-62
2021/06/12 02:07:07;;;;;;;15.23;8.20;;;18.10;99.90;;;;;;5238138;27;20558;-59
2021/06/12 02:09:36;;;;;;;16.97;9.30;;;18.10;99.90;;;;;;5236855;27;20135;-63
2021/06/12 02:12:04;;;;;;;17.40;9.20;;;18.10;99.90;;;;;;5236936;27;20247;-60
2021/06/12 02:14:33;;;;;;;17.33;8.70;;;18.10;99.90;;;;;;5239211;27;20169;-60
2021/06/12 02:17:00;;;;;;;15.93;8.63;;;18.10;99.90;;;;;;5236332;27;20108;-59
2021/06/12 02:19:28;;;;;;;20.07;10.23;;;18.20;99.90;;;;;;5237768;27;20107;-60
2021/06/12 02:21:56;;;;;;;19.67;9.97;;;18.20;99.90;;;;;;5246126;27;20279;-59
2021/06/12 02:24:23;;;;;;;17.20;9.23;;;18.10;99.90;;;;;;5259130;27;20190;-60
2021/06/12 02:26:53;;;;;;;18.30;9.53;;;18.10;99.90;;;;;;5258086;27;20538;-59
2021/06/12 02:29:20;;;;;;;16.97;9.27;;;18.00;99.90;;;;;;5262366;27;20115;-59
2021/06/12 02:31:50;;;;;;;20.27;10.53;;;18.00;99.90;;;;;;5259881;27;20473;-62
2021/06/12 02:34:16;;;;;;;17.47;8.20;;;18.00;99.90;;;;;;5259129;27;20108;-60
2021/06/12 02:36:44;;;;;;;16.93;9.37;;;18.00;99.90;;;;;;5262845;27;20218;-59
2021/06/12 02:39:12;;;;;;;18.87;9.70;;;18.10;99.90;;;;;;5260851;27;20107;-59
2021/06/12 02:41:38;;;;;;;19.70;9.63;;;18.00;99.90;;;;;;5258621;27;20138;-59
2021/06/12 02:44:05;;;;;;;17.03;9.70;;;18.00;99.90;;;;;;5259189;27;20127;-62
2021/06/12 02:46:35;;;;;;;16.70;9.27;;;18.00;99.90;;;;;;5262773;27;20161;-59
2021/06/12 02:49:05;;;;;;;16.97;9.77;;;18.00;99.90;;;;;;5258685;27;20125;-58
2021/06/12 02:51:34;;;;;;;16.43;10.13;;;18.10;99.90;;;;;;5257726;27;20551;-59
2021/06/12 02:54:01;;;;;;;19.63;10.73;;;18.10;99.90;;;;;;5258690;27;20115;-62
2021/06/12 02:56:30;;;;;;;15.80;10.30;;;18.00;99.90;;;;;;5257899;27;20108;-62
2021/06/12 02:59:02;;;;;;;15.90;9.03;;;18.00;99.90;;;;;;5258192;27;20107;-58
2021/06/12 03:01:29;;;;;;;15.83;10.07;;;18.00;99.90;;;;;;5260248;27;20108;-59
2021/06/12 03:03:56;;;;;;;16.90;11.00;;;18.00;99.90;;;;;;5259716;27;20551;-59
2021/06/12 03:06:24;;;;;;;16.00;10.40;;;18.00;99.90;;;;;;5257869;27;20161;-59
2021/06/12 03:08:53;;;;;;;16.40;10.00;;;18.00;99.90;;;;;;5259863;27;20511;-60
2021/06/12 03:11:20;;;;;;;19.33;10.33;;;18.00;99.90;;;;;;5258686;27;20134;-59
2021/06/12 03:13:50;;;;;;;20.73;10.20;;;17.90;99.90;;;;;;5261482;27;20107;-63
2021/06/12 03:16:18;;;;;;;19.17;11.27;;;18.10;99.90;;;;;;5257630;27;20123;-61
2021/06/12 03:18:47;;;;;;;19.23;11.17;;;18.00;99.90;;;;;;5257648;27;20219;-59
2021/06/12 03:21:16;;;;;;;20.33;9.87;;;18.00;99.90;;;;;;5258899;27;20138;-61
2021/06/12 03:23:44;;;;;;;21.87;11.00;;;18.00;99.90;;;;;;5257496;27;20115;-59
2021/06/12 03:26:11;;;;;;;15.70;10.87;;;18.00;99.90;;;;;;5257894;27;20188;-59
2021/06/12 03:28:39;;;;;;;21.50;11.33;;;18.00;99.90;;;;;;5259208;27;20413;-60
2021/06/12 03:31:07;;;;;;;14.80;10.00;;;18.00;99.90;;;;;;5259817;27;20127;-59
2021/06/12 03:33:33;;;;;;;18.30;11.80;;;18.00;99.90;;;;;;5258285;27;20143;-59
2021/06/12 03:36:02;;;;;;;19.90;12.23;;;18.00;99.90;;;;;;5260433;27;20127;-62
2021/06/12 03:38:29;;;;;;;17.77;10.53;;;18.00;99.90;;;;;;5260704;27;20139;-59
2021/06/12 03:40:56;;;;;;;18.10;11.13;;;18.00;99.90;;;;;;5260297;27;20107;-59
2021/06/12 03:43:24;;;;;;;17.33;10.87;;;17.90;99.90;;;;;;5259828;27;20123;-59
2021/06/12 03:45:54;;;;;;;23.00;12.27;;;18.00;99.90;;;;;;5260753;27;20131;-59
2021/06/12 03:48:23;;;;;;;18.60;11.13;;;17.90;99.90;;;;;;5259914;27;20149;-58
2021/06/12 03:50:51;;;;;;;18.20;10.80;;;18.00;99.90;;;;;;5259516;27;20281;-62
2021/06/12 03:53:19;;;;;;;21.90;11.77;;;18.00;99.90;;;;;;5259848;27;20107;-59
2021/06/12 03:55:47;;;;;;;16.97;10.87;;;18.00;99.90;;;;;;5262124;27;20517;-62
2021/06/12 03:58:13;;;;;;;18.23;10.43;;;18.00;99.90;;;;;;5261237;27;20138;-59
2021/06/12 04:00:40;;;;;;;15.27;10.47;;;17.90;99.90;;;;;;5259180;27;20357;-59
2021/06/12 04:03:07;;;;;;;20.73;10.20;;;17.90;99.90;;;;;;5262442;27;20111;-59
2021/06/12 04:05:35;;;;;;;19.10;10.97;;;17.90;99.90;;;;;;5261056;27;20135;-62
2021/06/12 04:08:02;;;;;;;15.80;10.53;;;17.90;99.90;;;;;;5260057;27;20114;-59
2021/06/12 04:10:28;;;;;;;18.23;9.30;;;17.90;99.90;;;;;;5260480;27;20116;-61
2021/06/12 04:12:54;;;;;;;17.33;9.50;;;18.00;99.90;;;;;;5261144;27;20107;-60
2021/06/12 04:15:21;;;;;;;21.73;10.90;;;17.90;99.90;;;;;;5265362;27;20107;-59
2021/06/12 04:17:50;;;;;;;17.50;10.03;;;17.90;99.90;;;;;;5261753;27;20122;-59
2021/06/12 04:20:17;;;;;;;12.73;8.43;;;17.80;99.90;;;;;;5259750;27;20130;-62
2021/06/12 04:22:44;;;;;;;14.17;10.63;;;17.80;99.90;;;;;;5260411;27;20175;-59
2021/06/12 04:25:11;;;;;;;17.37;9.20;;;17.90;99.90;;;;;;5260077;27;20138;-62
2021/06/12 04:27:39;;;;;;;18.90;9.87;;;17.90;99.90;;;;;;5260285;27;20501;-59
2021/06/12 04:30:06;;;;;;;11.70;8.80;;;17.90;99.90;;;;;;5260488;27;20171;-59
2021/06/12 04:32:33;;;;;;;16.03;8.50;;;17.90;99.90;;;;;;5260396;27;20107;-62
2021/06/12 04:34:59;;;;;;;16.20;9.73;;;18.00;99.90;;;;;;5260329;27;20594;-61
2021/06/12 04:37:25;;;;;;;16.67;9.80;;;17.90;99.90;;;;;;5260370;27;20218;-62
2021/06/12 04:39:53;;;;;;;18.47;9.00;;;17.90;99.90;;;;;;5260280;27;20115;-59
2021/06/12 04:42:19;;;;;;;18.33;10.60;;;17.90;99.90;;;;;;5260571;27;20157;-59
2021/06/12 04:44:46;;;;;;;18.07;9.50;;;17.80;99.90;;;;;;5259596;27;20127;-63
2021/06/12 04:47:12;;;;;;;19.73;10.10;;;18.00;99.90;;;;;;5259672;27;20107;-59
2021/06/12 04:49:39;;;;;;;13.83;9.20;;;18.10;99.90;;;;;;5259865;27;20473;-61
2021/06/12 04:52:05;;;;;;;15.13;9.60;;;18.00;99.90;;;;;;5258618;27;20162;-57
2021/06/12 04:54:32;;;;;;;13.30;8.43;;;18.10;99.90;;;;;;5261276;27;20141;-62
2021/06/12 04:56:59;;;;;;;16.70;9.77;;;18.10;99.90;;;;;;5259301;27;20114;-59
2021/06/12 04:59:26;;;;;;;13.63;8.37;;;17.90;99.90;;;;;;5260556;27;20157;-60
2021/06/12 05:01:53;;;;;;;15.77;8.57;;;18.00;99.90;;;;;;5260784;27;20134;-62
2021/06/12 05:04:19;;;;;;;16.93;8.80;;;18.00;99.90;;;;;;5259717;27;20173;-61
2021/06/12 05:06:45;;;;;;;13.93;7.83;;;17.90;99.90;;;;;;5261174;27;20138;-59
2021/06/12 05:09:12;;;;;;;11.90;8.10;;;18.10;99.90;;;;;;5261414;27;20103;-60
2021/06/12 05:11:38;;;;;;;14.47;7.53;;;18.10;99.90;;;;;;5262623;27;20107;-59
2021/06/12 05:14:06;;;;;;;12.50;7.93;;;18.20;99.90;;;;;;5261302;27;20421;-60
2021/06/12 05:16:34;;;;;;;13.77;7.80;;;18.30;99.90;;;;;;5260724;27;20122;-60
2021/06/12 05:19:00;;;;;;;12.67;7.23;;;18.40;99.90;;;;;;5261847;27;20107;-60
2021/06/12 05:21:26;;;;;;;9.53;6.60;;;18.50;99.90;;;;;;5258211;27;20522;-59
2021/06/12 05:23:54;;;;;;;13.23;7.73;;;18.70;99.90;;;;;;5258416;27;20151;-62
2021/06/12 05:26:21;;;;;;;11.70;6.50;;;18.60;99.90;;;;;;5260932;27;20127;-59
2021/06/12 05:28:47;;;;;;;11.63;7.40;;;18.70;99.90;;;;;;5258973;27;20478;-60
2021/06/12 05:31:14;;;;;;;13.17;6.40;;;18.60;99.90;;;;;;5258333;27;20181;-59
2021/06/12 05:33:41;;;;;;;14.33;7.87;;;18.90;99.90;;;;;;5258227;27;20123;-59
2021/06/12 05:36:07;;;;;;;13.23;7.17;;;18.90;99.90;;;;;;5260370;27;20141;-61
2021/06/12 05:38:35;;;;;;;11.40;7.57;;;19.20;99.90;;;;;;5261035;27;20149;-61
2021/06/12 05:41:02;;;;;;;11.43;6.80;;;19.30;99.90;;;;;;5260634;27;20185;-60
2021/06/12 05:43:30;;;;;;;11.20;6.50;;;19.70;99.90;;;;;;5261172;27;20179;-61
2021/06/12 05:45:57;;;;;;;12.80;6.10;;;20.80;99.90;;;;;;5261303;27;20119;-60
2021/06/12 05:48:25;;;;;;;9.77;5.60;;;21.50;99.90;;;;;;5263658;27;20512;-60
2021/06/12 05:50:51;;;;;;;12.20;5.63;;;21.80;99.90;;;;;;5261075;27;20107;-60
2021/06/12 05:53:18;;;;;;;15.37;7.07;;;21.40;99.90;;;;;;5262944;27;20516;-63
2021/06/12 05:55:44;;;;;;;11.63;6.20;;;20.80;99.90;;;;;;5262034;27;20138;-61
2021/06/12 05:58:10;;;;;;;11.80;5.77;;;20.50;99.90;;;;;;5260302;27;20512;-60
2021/06/12 06:00:37;;;;;;;14.90;5.47;;;20.50;99.90;;;;;;5259316;27;20444;-59
2021/06/12 06:03:03;;;;;;;13.37;5.57;;;20.50;99.90;;;;;;5257698;27;20142;-60
2021/06/12 06:05:31;;;;;;;7.93;5.00;;;20.70;99.90;;;;;;5259026;27;20111;-60
2021/06/12 06:07:57;;;;;;;13.47;5.23;;;20.60;99.90;;;;;;5259458;27;20114;-59
2021/06/12 06:10:24;;;;;;;6.63;4.27;;;20.60;99.90;;;;;;5259909;27;20146;-60
2021/06/12 06:12:53;;;;;;;9.13;4.77;;;20.40;99.90;;;;;;5263166;27;20157;-61
2021/06/12 06:15:20;;;;;;;8.03;4.60;;;20.30;99.90;;;;;;5260343;27;20127;-59
2021/06/12 06:17:49;;;;;;;11.30;5.70;;;20.20;99.90;;;;;;5261169;27;20107;-60
2021/06/12 06:20:15;;;;;;;15.10;4.60;;;20.50;99.90;;;;;;5258524;27;20137;-61
2021/06/12 06:22:43;;;;;;;6.20;4.30;;;20.80;99.90;;;;;;5256953;27;20194;-59
2021/06/12 06:25:11;;;;;;;8.90;4.50;;;21.00;99.70;;;;;;5256992;27;20107;-59
2021/06/12 06:27:38;;;;;;;11.53;5.60;;;21.00;98.60;;;;;;5259258;27;20118;-61
2021/06/12 06:30:05;;;;;;;7.57;4.03;;;21.10;97.80;;;;;;5257892;27;20153;-61
2021/06/12 06:32:32;;;;;;;6.33;4.83;;;20.90;97.40;;;;;;5259824;27;20107;-60
2021/06/12 06:34:58;;;;;;;7.00;4.57;;;20.80;98.00;;;;;;5260619;27;20107;-59
2021/06/12 06:37:24;;;;;;;8.20;4.20;;;20.90;98.20;;;;;;5261976;27;20139;-59
2021/06/12 06:39:53;;;;;;;7.63;4.10;;;21.10;98.60;;;;;;5260826;27;20157;-61
2021/06/12 06:42:19;;;;;;;9.77;4.60;;;21.40;97.80;;;;;;5260427;27;20163;-62
2021/06/12 06:44:46;;;;;;;8.93;4.50;;;21.00;96.90;;;;;;5261286;27;20142;-61
2021/06/12 06:47:12;;;;;;;6.47;4.10;;;20.80;97.80;;;;;;5262013;27;20562;-59
2021/06/12 06:49:39;;;;;;;5.40;3.90;;;21.50;97.10;;;;;;5260880;27;20523;-59
2021/06/12 06:52:06;;;;;;;7.90;4.37;;;21.80;96.60;;;;;;5260531;27;20119;-59
2021/06/12 06:54:33;;;;;;;8.30;3.90;;;21.70;95.70;;;;;;5260347;27;20123;-61
2021/06/12 06:57:01;;;;;;;7.70;3.87;;;21.70;95.70;;;;;;5262638;27;20126;-58
2021/06/12 06:59:27;;;;;;;6.90;3.57;;;21.50;94.80;;;;;;5261731;27;20103;-58
2021/06/12 07:01:55;;;;;;;8.67;3.47;;;21.30;95.90;;;;;;5260876;27;20173;-61
2021/06/12 07:04:21;;;;;;;6.00;3.90;;;21.20;95.60;;;;;;5262373;27;20107;-60
2021/06/12 07:06:48;;;;;;;7.53;3.17;;;21.20;95.90;;;;;;5262090;27;20171;-60
2021/06/12 07:09:14;;;;;;;4.27;2.80;;;21.30;95.00;;;;;;5260417;27;20147;-59
2021/06/12 07:11:40;;;;;;;8.70;3.27;;;21.40;95.20;;;;;;5260744;27;20132;-59
2021/06/12 07:14:08;;;;;;;7.03;3.67;;;21.40;94.80;;;;;;5261449;27;20107;-59
2021/06/12 07:16:34;;;;;;;4.47;3.00;;;21.40;94.30;;;;;;5261407;27;20480;-60
2021/06/12 07:19:01;;;;;;;4.63;2.90;;;21.50;94.40;;;;;;5260678;27;20123;-59
2021/06/12 07:21:27;;;;;;;6.30;2.87;;;21.60;94.20;;;;;;5262084;27;20198;-61
2021/06/12 07:23:54;;;;;;;8.93;3.20;;;21.40;93.70;;;;;;5261090;27;20115;-59
2021/06/12 07:26:20;;;;;;;6.67;3.00;;;21.70;94.10;;;;;;5262117;27;20409;-58
2021/06/12 07:28:48;;;;;;;4.57;2.70;;;22.50;94.30;;;;;;5260495;27;20508;-59
2021/06/12 07:31:15;;;;;;;6.20;2.60;;;22.60;91.90;;;;;;5260008;27;20202;-59
2021/06/12 07:33:42;;;;;;;6.63;2.70;;;23.20;89.60;;;;;;5261406;27;20444;-58
2021/06/12 07:36:08;;;;;;;9.40;2.90;;;23.20;90.40;;;;;;5260189;27;20130;-65
2021/06/12 07:38:35;;;;;;;4.37;2.57;;;23.50;87.90;;;;;;5261251;27;20471;-60
2021/06/12 07:41:01;;;;;;;7.97;3.30;;;23.90;88.20;;;;;;5263020;27;20160;-60
2021/06/12 07:43:27;;;;;;;4.90;2.63;;;23.90;87.50;;;;;;5260483;27;20123;-59
2021/06/12 07:45:55;;;;;;;5.20;2.63;;;23.80;87.60;;;;;;5260385;27;20122;-59
2021/06/12 07:48:23;;;;;;;5.57;2.67;;;23.30;86.90;;;;;;5262994;27;20107;-59
2021/06/12 07:50:49;;;;;;;6.80;2.90;;;22.90;88.30;;;;;;5260621;27;20126;-60
2021/06/12 07:53:18;;;;;;;7.67;2.70;;;22.70;89.40;;;;;;5260608;27;20122;-58
2021/06/12 07:55:44;;;;;;;6.70;2.93;;;22.20;89.70;;;;;;5260250;27;20153;-60
2021/06/12 07:58:11;;;;;;;6.43;3.10;;;22.30;89.70;;;;;;5260258;27;20108;-56
2021/06/12 08:00:37;;;;;;;9.07;3.47;;;22.10;90.00;;;;;;5262519;27;20465;-60
2021/06/12 08:03:04;;;;;;;8.60;3.20;;;22.20;89.60;;;;;;5260720;27;20103;-59
2021/06/12 08:05:32;;;;;;;5.50;2.70;;;22.10;90.10;;;;;;5260478;27;20107;-58
2021/06/12 08:07:58;;;;;;;6.93;3.03;;;22.00;90.50;;;;;;5260367;27;20123;-59
2021/06/12 08:10:27;;;;;;;6.30;3.13;;;22.30;91.10;;;;;;5261578;27;20154;-60
2021/06/12 08:12:54;;;;;;;5.67;2.73;;;22.70;90.20;;;;;;5260969;27;20103;-60
2021/06/12 08:15:20;;;;;;;7.83;2.70;;;23.80;87.70;;;;;;5260721;27;20107;-60
2021/06/12 08:17:46;;;;;;;6.93;2.73;;;24.80;83.20;;;;;;5262966;27;20167;-63
2021/06/12 08:20:13;;;;;;;8.50;2.57;;;25.10;81.90;;;;;;5260636;27;20115;-59
2021/06/12 08:22:41;;;;;;;7.63;2.77;;;25.00;81.20;;;;;;5261452;27;20173;-58
2021/06/12 08:25:10;;;;;;;7.90;2.90;;;27.90;78.10;;;;;;5262036;27;20176;-59
2021/06/12 08:27:38;;;;;;;9.95;2.72;;;29.90;70.50;;;;;;5261881;27;20107;-59
2021/06/12 08:30:09;;;;;;;3.25;2.22;;;29.30;67.60;;;;;;5263550;27;20147;-62
2021/06/12 08:32:35;;;;;;;7.57;2.47;;;27.90;69.60;;;;;;5261796;27;20137;-59
2021/06/12 08:35:02;;;;;;;5.87;2.53;;;26.90;71.20;;;;;;5261724;27;20107;-58
2021/06/12 08:37:28;;;;;;;12.15;2.95;;;26.20;73.20;;;;;;5262953;27;20118;-58
2021/06/12 08:39:55;;;;;;;5.82;2.83;;;25.70;73.60;;;;;;5261827;27;20140;-61
2021/06/12 08:42:22;;;;;;;5.37;2.37;;;26.00;73.90;;;;;;5261352;27;20141;-60
2021/06/12 08:44:49;;;;;;;6.62;3.25;;;25.80;74.40;;;;;;5261510;27;20107;-59
2021/06/12 08:47:15;;;;;;;5.37;3.15;;;27.00;73.60;;;;;;5260962;27;20154;-60
2021/06/12 08:49:43;;;;;;;7.70;2.70;;;27.70;70.70;;;;;;5263972;27;20122;-60
2021/06/12 08:52:09;;;;;;;6.53;2.87;;;27.70;69.60;;;;;;5261673;27;20118;-59
2021/06/12 08:54:40;;;;;;;6.70;2.75;;;27.40;69.60;;;;;;5262617;27;20151;-60
2021/06/12 08:57:09;;;;;;;9.35;2.75;;;26.80;71.30;;;;;;5263705;27;20118;-60
2021/06/12 08:59:36;;;;;;;5.53;2.58;;;26.90;72.10;;;;;;5262000;27;20558;-60
2021/06/12 09:02:02;;;;;;;6.80;2.95;;;27.50;72.70;;;;;;5263630;27;20143;-60
2021/06/12 09:04:31;;;;;;;9.13;3.25;;;28.90;69.40;;;;;;5261136;27;20127;-60
2021/06/12 09:07:21;;;;;;;5.80;2.70;;;30.60;63.80;;;;;;5260328;27;20146;-59
2021/06/12 09:09:49;;;;;;;6.45;2.90;;;32.80;60.80;;;;;;5261632;27;20161;-59
2021/06/12 09:12:16;;;;;;;7.07;2.65;;;32.40;58.00;;;;;;5264094;27;20153;-58
2021/06/12 09:14:47;;;;;;;7.03;2.85;;;30.00;59.00;;;;;;5261188;27;20123;-58
2021/06/12 09:17:15;;;;;;;5.12;2.30;;;28.40;61.30;;;;;;5262640;27;20127;-60
2021/06/12 09:19:42;;;;;;;6.90;2.55;;;27.00;63.50;;;;;;5261752;27;20123;-61
2021/06/12 09:22:10;;;;;;;4.30;2.33;;;27.80;64.20;;;;;;5261409;27;20141;-58
2021/06/12 09:24:41;;;;;;;5.68;2.30;;;28.30;61.90;;;;;;5261232;27;20135;-60
2021/06/12 09:27:12;;;;;;;4.93;2.55;;;28.40;62.30;;;;;;5261270;27;20115;-60
2021/06/12 09:29:41;;;;;;;6.97;2.30;;;28.40;60.50;;;;;;5263036;27;20103;-62
2021/06/12 09:32:12;;;;;;;6.35;2.53;;;28.00;61.60;;;;;;5261147;27;20141;-59
2021/06/12 09:34:38;;;;;;;5.90;2.33;;;27.30;61.60;;;;;;5263560;27;20145;-59
2021/06/12 09:37:10;;;;;;;5.72;2.12;;;27.60;62.90;;;;;;5261614;27;20138;-61
2021/06/12 09:39:36;;;;;;;6.22;2.80;;;28.00;62.00;;;;;;5263842;27;20134;-61
2021/06/12 09:42:03;;;;;;;4.93;2.47;;;27.30;62.70;;;;;;5263874;27;20515;-62
2021/06/12 09:44:32;;;;;;;5.15;2.55;;;26.90;64.40;;;;;;5259994;27;20500;-61
2021/06/12 09:47:00;;;;;;;7.53;2.70;;;26.20;65.00;;;;;;5263751;27;20107;-61
2021/06/12 09:49:32;;;;;;;6.75;2.45;;;25.90;64.80;;;;;;5261525;27;20165;-62
2021/06/12 09:52:08;;;;;;;8.20;2.85;;;25.80;65.20;;;;;;5261300;27;20111;-59
2021/06/12 09:54:39;;;;;;;6.68;2.67;;;25.50;65.90;;;;;;5261334;27;20572;-59
2021/06/12 09:57:07;;;;;;;5.55;2.37;;;25.80;65.70;;;;;;5261186;27;20149;-58
2021/06/12 09:59:42;;;;;;;6.65;2.47;;;26.00;66.50;;;;;;5261346;27;20132;-59
2021/06/12 10:02:10;;;;;;;7.77;2.57;;;25.30;63.20;;;;;;5261295;27;20167;-59
2021/06/12 10:04:37;;;;;;;6.03;2.37;;;25.60;65.70;;;;;;5261366;27;20155;-59
2021/06/12 10:07:03;;;;;;;7.20;2.30;;;26.20;64.40;;;;;;5261066;27;20104;-59
2021/06/12 10:09:30;;;;;;;5.55;2.03;;;26.70;63.10;;;;;;5261393;27;20438;-59
2021/06/12 10:11:57;;;;;;;7.50;2.20;;;25.80;63.40;;;;;;5261413;27;20106;-59
2021/06/12 10:14:23;;;;;;;4.83;1.87;;;26.10;63.40;;;;;;5261299;27;20104;-59
2021/06/12 10:16:50;;;;;;;6.70;2.53;;;25.60;61.20;;;;;;5262046;27;20157;-60
2021/06/12 10:19:19;;;;;;;6.47;2.28;;;26.20;61.10;;;;;;5263333;27;20119;-60
2021/06/12 10:21:46;;;;;;;5.20;2.30;;;25.50;61.50;;;;;;5261775;27;20539;-59
2021/06/12 10:24:13;;;;;;;10.10;2.80;;;24.80;63.90;;;;;;5260982;27;20154;-60
2021/06/12 10:26:40;;;;;;;6.73;2.10;;;24.90;66.20;;;;;;5262735;27;20120;-59
2021/06/12 10:29:08;;;;;;;6.77;2.20;;;25.80;65.60;;;;;;5260987;27;20124;-62
2021/06/12 10:31:37;;;;;;;10.27;3.00;;;24.80;64.70;;;;;;5261204;27;20161;-58
2021/06/12 10:34:05;;;;;;;5.93;3.23;;;24.00;64.00;;;;;;5261112;27;20115;-59
2021/06/12 10:36:33;;;;;;;4.50;2.27;;;23.40;64.80;;;;;;5263326;27;20142;-58
2021/06/12 10:39:01;;;;;;;6.27;2.13;;;23.60;66.20;;;;;;5262375;27;20107;-59
2021/06/12 10:41:31;;;;;;;9.40;2.80;;;23.90;65.50;;;;;;5261198;27;20107;-60
2021/06/12 10:43:59;;;;;;;8.43;2.83;;;24.10;67.30;;;;;;5260086;27;20569;-59
2021/06/12 10:46:27;;;;;;;7.93;2.83;;;23.50;67.60;;;;;;5260705;27;20578;-61
2021/06/12 10:48:54;;;;;;;5.87;2.73;;;23.60;68.50;;;;;;5260708;27;20107;-60
2021/06/12 10:51:44;;;;;;;7.03;2.43;;;23.50;69.30;;;;;;5261428;27;20127;-59
2021/06/12 10:54:20;;;;;;;5.77;2.53;;;23.90;67.90;;;;;;5263437;27;20592;-60
2021/06/12 10:56:49;;;;;;;9.57;2.73;;;23.70;68.80;;;;;;5260989;27;20156;-61
2021/06/12 10:59:42;;;;;;;4.90;2.80;;;24.20;69.70;;;;;;5261205;27;20176;-61
2021/06/12 11:02:12;;;;;;;7.47;3.13;;;24.50;68.40;;;;;;5260284;27;20111;-59
2021/06/12 11:04:47;;;;;;;8.93;2.80;;;24.70;68.00;;;;;;5260484;27;20129;-59
2021/06/12 11:07:26;;;;;;;7.00;2.50;;;24.80;69.20;;;;;;5241498;27;20177;-58
2021/06/12 11:10:08;;;;;;;9.90;3.13;;;25.00;68.70;;;;;;5260558;27;20115;-57
2021/06/12 11:12:36;;;;;;;7.95;2.70;;;25.00;67.60;;;;;;5254633;27;20184;-61
2021/06/12 11:15:12;;;;;;;6.15;2.97;;;24.80;66.70;;;;;;5260556;27;20159;-56
2021/06/12 11:17:39;;;;;;;7.78;2.90;;;24.80;66.40;;;;;;5260914;27;20127;-59
2021/06/12 11:20:29;;;;;;;8.80;2.83;;;24.60;66.20;;;;;;5258459;27;20155;-59
2021/06/12 11:23:02;;;;;;;9.10;2.80;;;24.70;68.10;;;;;;5257915;27;20135;-61
2021/06/12 11:25:54;;;;;;;7.85;2.75;;;24.80;68.90;;;;;;5258623;27;20107;-57
2021/06/12 11:28:30;;;;;;;7.67;2.63;;;24.90;68.20;;;;;;5255020;27;20192;-59
2021/06/12 11:31:41;;;;;;;6.80;2.58;;;24.80;68.40;;;;;;5256485;27;20119;-58
2021/06/12 11:34:16;;;;;;;9.07;3.27;;;24.60;68.30;;;;;;5258429;27;20106;-57
2021/06/12 11:36:46;;;;;;;6.30;2.47;;;24.40;67.50;;;;;;5260897;27;20126;-58
2021/06/12 11:39:14;;;;;;;6.85;2.50;;;24.00;68.10;;;;;;5258935;27;20550;-61
2021/06/12 11:41:41;;;;;;;6.33;3.07;;;23.90;68.80;;;;;;5260479;27;20134;-60
2021/06/12 11:44:08;;;;;;;6.77;2.90;;;23.80;69.50;;;;;;5259420;27;20123;-55
2021/06/12 11:46:37;;;;;;;8.93;3.13;;;23.70;69.30;;;;;;5260311;27;20270;-57
2021/06/12 11:49:08;;;;;;;6.57;2.90;;;23.80;70.00;;;;;;5261098;27;20111;-57
2021/06/12 11:51:36;;;;;;;7.70;2.53;;;23.80;69.30;;;;;;5258875;27;20130;-56
2021/06/12 11:54:09;;;;;;;8.73;2.80;;;23.60;70.20;;;;;;5258461;27;20126;-58
2021/06/12 11:56:40;;;;;;;5.83;1.90;;;23.20;68.80;;;;;;5261761;27;20151;-60
2021/06/12 11:59:08;;;;;;;8.03;2.83;;;23.10;69.20;;;;;;5264473;27;20154;-58
2021/06/12 12:01:39;;;;;;;6.63;2.60;;;23.00;69.50;;;;;;5261402;27;20123;-59
2021/06/12 12:04:07;;;;;;;10.57;2.87;;;22.80;69.90;;;;;;5262138;27;20149;-59
2021/06/12 12:06:33;;;;;;;6.17;2.03;;;22.70;70.30;;;;;;5263775;27;20512;-59
2021/06/12 12:09:03;;;;;;;4.23;2.00;;;22.80;69.90;;;;;;5260925;27;20173;-61
2021/06/12 12:11:30;;;;;;;8.23;2.67;;;23.10;70.20;;;;;;5261936;27;20111;-57
2021/06/12 12:14:03;;;;;;;5.53;2.27;;;23.50;69.00;;;;;;5261549;27;20126;-59
2021/06/12 12:16:30;;;;;;;4.90;2.10;;;23.70;67.90;;;;;;5262169;27;20417;-60
2021/06/12 12:18:58;;;;;;;5.57;2.37;;;23.90;66.40;;;;;;5263390;27;20134;-60
2021/06/12 12:21:32;;;;;;;5.60;2.23;;;24.00;66.70;;;;;;5261287;27;20151;-59
2021/06/12 12:23:59;;;;;;;4.90;2.03;;;24.00;66.10;;;;;;5260083;27;20152;-58
2021/06/12 12:26:27;;;;;;;4.53;2.42;;;24.10;67.40;;;;;;5258973;27;20155;-57
2021/06/12 12:28:56;;;;;;;5.63;2.33;;;24.10;67.50;;;;;;5257699;27;20114;-58
2021/06/12 12:31:25;;;;;;;4.57;2.30;;;24.20;68.10;;;;;;5257703;27;20116;-59
2021/06/12 12:33:52;;;;;;;5.37;2.10;;;24.10;67.70;;;;;;5263399;27;20447;-59
2021/06/12 12:36:24;;;;;;;4.20;2.30;;;24.00;67.70;;;;;;5264002;27;20107;-58
2021/06/12 12:39:00;;;;;;;5.60;2.10;;;23.80;66.50;;;;;;5261864;27;20111;-58
2021/06/12 12:41:28;;;;;;;6.57;2.20;;;23.40;66.90;;;;;;5258510;27;20540;-59
2021/06/12 12:44:10;;;;;;;6.00;2.53;;;23.20;68.80;;;;;;5261739;27;20146;-58
2021/06/12 12:46:39;;;;;;;7.73;1.97;;;23.00;69.60;;;;;;5258927;27;20108;-61
2021/06/12 12:49:06;;;;;;;5.73;2.13;;;23.00;68.30;;;;;;5259277;27;20540;-59